createdAt,value
2019-04-07T00:00:13.196Z,22.2
2019-04-07T00:01:03.862Z,22.2
2019-04-07T00:01:51.898Z,22.2
2019-04-07T00:02:41.521Z,22.2
2019-04-07T00:03:31.518Z,22.2
2019-04-07T00:04:21.541Z,22.2
2019-04-07T00:05:24.456Z,22.2
2019-04-07T00:06:00.300Z,22.2
2019-04-07T00:06:50.942Z,22.2
2019-04-07T00:07:43.590Z,22.2
2019-04-07T00:08:33.888Z,22.2
2019-04-07T00:09:23.429Z,22.2
2019-04-07T00:10:11.048Z,22.2
2019-04-07T00:11:01.359Z,22.2
2019-04-07T00:11:54.053Z,22.2
2019-04-07T00:12:41.243Z,22.2
2019-04-07T00:13:32.594Z,22.2
2019-04-07T00:14:21.217Z,22.2
2019-04-07T00:15:14.437Z,22.2
2019-04-07T00:16:02.585Z,22.2
2019-04-07T00:16:51.789Z,22.2
2019-04-07T00:17:40.807Z,22.2
2019-04-07T00:18:32.275Z,22.2
2019-04-07T00:19:23.351Z,22.1
2019-04-07T00:20:13.804Z,22.2
2019-04-07T00:21:03.952Z,22.2
2019-04-07T00:21:52.075Z,22.2
2019-04-07T00:22:42.614Z,22.2
2019-04-07T00:23:32.916Z,22.1
2019-04-07T00:24:22.394Z,22.1
2019-04-07T00:25:11.859Z,22.1
2019-04-07T00:26:03.159Z,22.1
2019-04-07T00:26:51.752Z,22.1
2019-04-07T00:27:42.114Z,22.1
2019-04-07T00:28:32.448Z,22.1
2019-04-07T00:29:22.699Z,22.1
2019-04-07T00:30:12.437Z,22.1
2019-04-07T00:31:01.922Z,22.1
2019-04-07T00:31:52.306Z,22.1
2019-04-07T00:32:41.367Z,22.1
2019-04-07T00:33:34.617Z,22.1
2019-04-07T00:34:25.285Z,22.1
2019-04-07T00:35:35.780Z,22.1
2019-04-07T00:36:05.669Z,22.1
2019-04-07T00:36:53.625Z,22.1
2019-04-07T00:37:45.358Z,22.1
2019-04-07T00:38:35.867Z,22.1
2019-04-07T00:39:24.948Z,22.1
2019-04-07T00:40:15.859Z,22.1
2019-04-07T00:41:06.784Z,22.1
2019-04-07T00:41:56.512Z,22.1
2019-04-07T00:42:45.518Z,22.1
2019-04-07T00:43:36.348Z,22.1
2019-04-07T00:44:26.745Z,22.1
2019-04-07T00:45:15.069Z,22.1
2019-04-07T00:46:06.729Z,22.1
2019-04-07T00:46:56.576Z,22.1
2019-04-07T00:47:47.093Z,22.1
2019-04-07T00:48:34.661Z,22.1
2019-04-07T00:49:23.683Z,22.1
2019-04-07T00:50:17.336Z,22.1
2019-04-07T00:51:05.581Z,22.1
2019-04-07T00:51:57.212Z,22.1
2019-04-07T00:52:46.466Z,22.1
2019-04-07T00:53:35.309Z,22.1
2019-04-07T00:54:28.012Z,22.1
2019-04-07T00:55:16.690Z,22.1
2019-04-07T00:56:06.247Z,22.1
2019-04-07T00:56:53.762Z,22.1
2019-04-07T00:57:46.159Z,22.1
2019-04-07T00:58:37.178Z,22.1
2019-04-07T00:59:26.377Z,22.1
2019-04-07T01:00:19.101Z,22.1
2019-04-07T01:01:06.338Z,22.1
2019-04-07T01:01:57.949Z,22.1
2019-04-07T01:02:48.542Z,22.1
2019-04-07T01:03:36.497Z,22.1
2019-04-07T01:04:27.631Z,22.1
2019-04-07T01:05:16.883Z,22.1
2019-04-07T01:06:05.513Z,22.1
2019-04-07T01:06:56.853Z,22.1
2019-04-07T01:07:48.005Z,22.1
2019-04-07T01:08:38.744Z,22.1
2019-04-07T01:09:26.634Z,22
2019-04-07T01:10:18.296Z,22
2019-04-07T01:11:06.767Z,22.1
2019-04-07T01:11:58.795Z,22
2019-04-07T01:12:47.365Z,22
2019-04-07T01:13:37.334Z,22
2019-04-07T01:14:26.309Z,22
2019-04-07T01:15:17.629Z,22
2019-04-07T01:16:07.106Z,22
2019-04-07T01:16:58.265Z,22
2019-04-07T01:17:47.769Z,22
2019-04-07T01:18:39.042Z,22
2019-04-07T01:19:29.901Z,22
2019-04-07T01:20:17.799Z,22
2019-04-07T01:21:07.353Z,22
2019-04-07T01:21:57.825Z,22
2019-04-07T01:22:49.408Z,22
2019-04-07T01:23:37.893Z,22
2019-04-07T01:24:30.341Z,22
2019-04-07T01:25:17.640Z,22
2019-04-07T01:26:06.401Z,22
2019-04-07T01:26:57.892Z,22
2019-04-07T01:27:48.102Z,22
2019-04-07T01:28:36.558Z,22
2019-04-07T01:29:27.626Z,22
2019-04-07T01:30:20.295Z,22
2019-04-07T01:31:07.653Z,22
2019-04-07T01:31:58.415Z,22
2019-04-07T01:32:46.928Z,22
2019-04-07T01:33:38.904Z,22
2019-04-07T01:34:29.403Z,22
2019-04-07T01:35:21.320Z,22
2019-04-07T01:36:09.461Z,22
2019-04-07T01:36:58.780Z,22
2019-04-07T01:37:50.638Z,22
2019-04-07T01:38:38.756Z,22
2019-04-07T01:39:29.452Z,22
2019-04-07T01:40:19.890Z,22
2019-04-07T01:41:10.811Z,22
2019-04-07T01:41:59.089Z,22
2019-04-07T01:42:49.845Z,22
2019-04-07T01:43:40.468Z,22
2019-04-07T01:44:31.403Z,22
2019-04-07T01:45:21.485Z,21.9
2019-04-07T01:46:09.848Z,22
2019-04-07T01:46:58.075Z,21.9
2019-04-07T01:47:48.601Z,22
2019-04-07T01:48:39.581Z,21.9
2019-04-07T01:49:28.749Z,21.9
2019-04-07T01:50:20.846Z,21.9
2019-04-07T01:51:09.069Z,21.9
2019-04-07T01:51:58.777Z,21.9
2019-04-07T01:52:50.340Z,21.9
2019-04-07T01:53:39.294Z,21.9
2019-04-07T01:54:31.798Z,21.9
2019-04-07T01:55:20.245Z,21.9
2019-04-07T01:56:09.667Z,21.9
2019-04-07T01:56:58.349Z,21.9
2019-04-07T01:57:52.344Z,21.9
2019-04-07T01:58:42.771Z,21.9
2019-04-07T01:59:31.618Z,21.9
2019-04-07T02:00:19.367Z,21.9
2019-04-07T02:01:09.659Z,21.9
2019-04-07T02:02:02.616Z,21.9
2019-04-07T02:02:52.009Z,21.9
2019-04-07T02:03:43.489Z,21.9
2019-04-07T02:04:30.851Z,21.9
2019-04-07T02:05:20.863Z,21.9
2019-04-07T02:06:13.301Z,21.9
2019-04-07T02:07:01.000Z,21.9
2019-04-07T02:07:52.354Z,21.9
2019-04-07T02:08:41.718Z,21.9
2019-04-07T02:09:34.181Z,21.9
2019-04-07T02:10:21.876Z,21.9
2019-04-07T02:11:11.343Z,21.9
2019-04-07T02:12:02.601Z,21.9
2019-04-07T02:12:53.631Z,21.9
2019-04-07T02:13:43.854Z,21.9
2019-04-07T02:14:32.244Z,21.9
2019-04-07T02:15:22.798Z,21.9
2019-04-07T02:16:11.429Z,21.9
2019-04-07T02:17:03.311Z,21.9
2019-04-07T02:17:53.308Z,21.9
2019-04-07T02:18:42.058Z,21.9
2019-04-07T02:19:33.678Z,21.9
2019-04-07T02:20:23.743Z,21.9
2019-04-07T02:21:14.738Z,21.9
2019-04-07T02:22:01.909Z,21.9
2019-04-07T02:22:53.166Z,21.9
2019-04-07T02:23:42.502Z,21.9
2019-04-07T02:24:35.588Z,21.9
2019-04-07T02:25:23.421Z,21.9
2019-04-07T02:26:13.560Z,21.9
2019-04-07T02:27:03.023Z,21.9
2019-04-07T02:27:53.591Z,21.9
2019-04-07T02:28:42.986Z,21.9
2019-04-07T02:29:34.591Z,21.9
2019-04-07T02:30:25.423Z,21.9
2019-04-07T02:31:13.536Z,21.9
2019-04-07T02:32:06.336Z,21.8
2019-04-07T02:32:58.078Z,21.8
2019-04-07T02:33:44.488Z,21.8
2019-04-07T02:34:34.039Z,21.8
2019-04-07T02:35:25.840Z,21.8
2019-04-07T02:36:43.723Z,21.8
2019-04-07T02:37:07.160Z,21.8
2019-04-07T02:37:55.136Z,21.8
2019-04-07T02:38:45.537Z,21.8
2019-04-07T02:39:36.727Z,21.8
2019-04-07T02:40:26.601Z,21.8
2019-04-07T02:41:16.475Z,21.8
2019-04-07T02:42:04.486Z,21.8
2019-04-07T02:42:55.858Z,21.8
2019-04-07T02:43:42.355Z,21.9
2019-04-07T02:44:35.757Z,21.9
2019-04-07T02:45:25.546Z,21.8
2019-04-07T02:46:15.751Z,21.8
2019-04-07T02:47:04.294Z,21.8
2019-04-07T02:47:54.586Z,21.8
2019-04-07T02:48:45.122Z,21.8
2019-04-07T02:49:36.625Z,21.8
2019-04-07T02:50:26.071Z,21.8
2019-04-07T02:51:14.256Z,21.8
2019-04-07T02:52:04.430Z,21.8
2019-04-07T02:52:59.276Z,21.8
2019-04-07T02:53:47.999Z,21.8
2019-04-07T02:54:33.509Z,21.8
2019-04-07T02:55:24.362Z,21.8
2019-04-07T02:56:17.026Z,21.8
2019-04-07T02:57:06.411Z,21.8
2019-04-07T02:57:56.329Z,21.8
2019-04-07T02:58:44.328Z,21.8
2019-04-07T02:59:39.570Z,21.8
2019-04-07T03:00:27.997Z,21.8
2019-04-07T03:01:15.908Z,21.8
2019-04-07T03:02:06.461Z,21.8
2019-04-07T03:02:58.551Z,21.8
2019-04-07T03:03:48.763Z,21.8
2019-04-07T03:07:31.057Z,21.8
2019-04-07T03:10:00.755Z,21.8
2019-04-07T03:10:37.093Z,21.8
2019-04-07T03:11:32.158Z,21.8
2019-04-07T03:12:15.373Z,21.8
2019-04-07T03:13:10.228Z,21.8
2019-04-07T03:13:58.597Z,21.8
2019-04-07T03:14:47.343Z,21.8
2019-04-07T03:15:37.352Z,21.8
2019-04-07T03:16:29.272Z,21.8
2019-04-07T03:17:17.616Z,21.8
2019-04-07T03:18:07.412Z,21.8
2019-04-07T03:18:57.935Z,21.8
2019-04-07T03:19:48.342Z,21.8
2019-04-07T03:20:39.750Z,21.8
2019-04-07T03:21:28.163Z,21.8
2019-04-07T03:22:18.755Z,21.8
2019-04-07T03:23:09.925Z,21.8
2019-04-07T03:24:00.182Z,21.8
2019-04-07T03:24:47.358Z,21.8
2019-04-07T03:25:40.288Z,21.8
2019-04-07T03:26:29.763Z,21.8
2019-04-07T03:27:18.860Z,21.8
2019-04-07T03:28:10.813Z,21.8
2019-04-07T03:28:59.883Z,21.8
2019-04-07T03:30:11.123Z,21.8
2019-04-07T03:31:10.286Z,21.8
2019-04-07T03:32:05.592Z,21.8
2019-04-07T03:33:35.833Z,21.8
2019-04-07T03:34:44.713Z,21.8
2019-04-07T03:35:59.118Z,21.8
2019-04-07T03:37:57.584Z,21.8
2019-04-07T03:38:16.825Z,21.8
2019-04-07T03:39:06.519Z,21.8
2019-04-07T03:40:11.467Z,21.8
2019-04-07T03:41:51.233Z,21.8
2019-04-07T03:42:24.889Z,21.8
2019-04-07T03:43:15.307Z,21.8
2019-04-07T03:44:10.291Z,21.8
2019-04-07T03:44:55.122Z,21.8
2019-04-07T03:45:45.500Z,21.8
2019-04-07T03:46:37.539Z,21.8
2019-04-07T03:47:27.391Z,21.8
2019-04-07T03:48:18.439Z,21.8
2019-04-07T03:49:06.007Z,21.8
2019-04-07T03:49:56.747Z,21.8
2019-04-07T03:50:46.334Z,21.8
2019-04-07T03:51:36.192Z,21.8
2019-04-07T03:52:29.665Z,21.8
2019-04-07T03:53:15.831Z,21.8
2019-04-07T03:54:05.555Z,21.8
2019-04-07T03:54:55.507Z,21.8
2019-04-07T03:56:02.318Z,21.7
2019-04-07T03:56:37.773Z,21.8
2019-04-07T03:57:25.696Z,21.8
2019-04-07T03:58:20.107Z,21.8
2019-04-07T03:59:07.404Z,21.8
2019-04-07T03:59:56.451Z,21.8
2019-04-07T04:00:48.154Z,21.8
2019-04-07T04:01:39.351Z,21.8
2019-04-07T04:02:27.916Z,21.8
2019-04-07T04:03:19.308Z,21.8
2019-04-07T04:04:07.896Z,21.8
2019-04-07T04:04:57.541Z,21.8
2019-04-07T04:05:51.225Z,21.8
2019-04-07T04:06:38.867Z,21.8
2019-04-07T04:07:49.384Z,21.8
2019-04-07T04:08:16.964Z,21.7
2019-04-07T04:09:06.910Z,21.8
2019-04-07T04:09:57.876Z,21.7
2019-04-07T04:10:48.907Z,21.7
2019-04-07T04:11:37.658Z,21.7
2019-04-07T04:12:28.128Z,21.7
2019-04-07T04:13:18.481Z,21.8
2019-04-07T04:14:06.778Z,21.8
2019-04-07T04:14:58.855Z,21.7
2019-04-07T04:15:48.685Z,21.7
2019-04-07T04:16:37.239Z,21.7
2019-04-07T04:17:30.432Z,21.7
2019-04-07T04:18:18.880Z,21.7
2019-04-07T04:19:11.577Z,21.7
2019-04-07T04:19:58.599Z,21.7
2019-04-07T04:20:49.089Z,21.7
2019-04-07T04:21:39.195Z,21.7
2019-04-07T04:22:31.245Z,21.7
2019-04-07T04:23:22.194Z,21.7
2019-04-07T04:24:10.862Z,21.7
2019-04-07T04:25:00.912Z,21.7
2019-04-07T04:25:51.340Z,21.7
2019-04-07T04:26:38.850Z,21.7
2019-04-07T04:27:29.980Z,21.7
2019-04-07T04:28:19.165Z,21.7
2019-04-07T04:29:12.065Z,21.7
2019-04-07T04:30:05.024Z,21.7
2019-04-07T04:30:50.546Z,21.7
2019-04-07T04:31:38.849Z,21.7
2019-04-07T04:32:30.613Z,21.7
2019-04-07T04:33:17.747Z,21.7
2019-04-07T04:34:09.582Z,21.7
2019-04-07T04:35:01.580Z,21.7
2019-04-07T04:35:50.129Z,21.7
2019-04-07T04:36:56.900Z,21.7
2019-04-07T04:38:02.379Z,21.7
2019-04-07T04:38:21.107Z,21.7
2019-04-07T04:39:15.707Z,21.7
2019-04-07T04:40:03.054Z,21.8
2019-04-07T04:40:52.580Z,21.7
2019-04-07T04:41:43.064Z,21.7
2019-04-07T04:42:35.593Z,21.7
2019-04-07T04:43:21.959Z,21.8
2019-04-07T04:44:11.672Z,21.7
2019-04-07T04:45:04.745Z,21.7
2019-04-07T04:45:53.203Z,21.7
2019-04-07T04:46:43.706Z,21.7
2019-04-07T04:47:31.478Z,21.7
2019-04-07T04:48:21.662Z,21.7
2019-04-07T04:49:12.370Z,21.7
2019-04-07T04:50:01.708Z,21.7
2019-04-07T04:50:52.841Z,21.7
2019-04-07T04:51:49.916Z,21.7
2019-04-07T04:52:30.681Z,21.7
2019-04-07T04:53:19.918Z,21.7
2019-04-07T04:54:13.150Z,21.7
2019-04-07T04:55:02.585Z,21.7
2019-04-07T04:55:51.943Z,21.7
2019-04-07T04:56:41.399Z,21.7
2019-04-07T06:05:20.168Z,21.8
2019-04-07T06:06:07.180Z,21.8
2019-04-07T06:07:05.785Z,21.8
2019-04-07T06:07:48.417Z,21.8
2019-04-07T06:08:56.058Z,21.8
2019-04-07T06:09:37.233Z,21.8
2019-04-07T06:10:18.167Z,21.8
2019-04-07T06:11:11.436Z,21.8
2019-04-07T06:11:56.745Z,21.8
2019-04-07T06:12:54.310Z,21.8
2019-04-07T06:13:40.502Z,21.8
2019-04-07T06:14:28.297Z,21.8
2019-04-07T06:15:24.918Z,21.8
2019-04-07T06:16:07.218Z,21.8
2019-04-07T06:17:02.610Z,21.8
2019-04-07T06:17:48.899Z,21.8
2019-04-07T06:18:44.461Z,21.8
2019-04-07T06:19:26.754Z,21.8
2019-04-07T06:20:24.698Z,21.8
2019-04-07T06:21:09.293Z,21.8
2019-04-07T06:21:57.212Z,21.8
2019-04-07T06:22:57.555Z,21.8
2019-04-07T06:23:41.257Z,21.8
2019-04-07T06:24:39.421Z,21.8
2019-04-07T06:25:20.622Z,21.8
2019-04-07T06:26:17.794Z,21.8
2019-04-07T06:26:58.664Z,21.8
2019-04-07T06:27:55.278Z,21.8
2019-04-07T06:28:36.910Z,21.8
2019-04-07T06:29:33.361Z,21.8
2019-04-07T06:30:19.176Z,21.8
2019-04-07T06:31:12.854Z,21.8
2019-04-07T06:32:09.081Z,21.8
2019-04-07T06:32:52.715Z,21.8
2019-04-07T06:33:44.633Z,21.8
2019-04-07T06:34:28.998Z,21.8
2019-04-07T06:35:24.008Z,21.8
2019-04-07T06:36:09.438Z,21.8
2019-04-07T06:37:06.829Z,21.8
2019-04-07T06:37:48.666Z,21.8
2019-04-07T06:39:00.261Z,21.8
2019-04-07T06:39:32.777Z,21.8
2019-04-07T06:40:25.720Z,21.8
2019-04-07T06:41:12.647Z,21.8
2019-04-07T06:42:03.893Z,21.8
2019-04-07T06:42:52.454Z,21.8
2019-04-07T06:43:45.148Z,21.8
2019-04-07T06:44:31.823Z,21.8
2019-04-07T06:45:25.493Z,21.8
2019-04-07T06:46:09.703Z,21.8
2019-04-07T06:47:08.553Z,21.8
2019-04-07T06:47:47.087Z,21.8
2019-04-07T06:48:44.979Z,21.8
2019-04-07T06:49:34.345Z,21.8
2019-04-07T06:50:24.550Z,21.8
2019-04-07T06:51:11.647Z,21.8
2019-04-07T06:52:08.297Z,21.8
2019-04-07T06:52:49.790Z,21.8
2019-04-07T06:53:38.035Z,21.8
2019-04-07T06:54:32.989Z,21.8
2019-04-07T06:55:19.048Z,21.8
2019-04-07T06:56:13.082Z,21.8
2019-04-07T06:57:06.293Z,21.8
2019-04-07T06:57:50.383Z,21.8
2019-04-07T06:58:48.151Z,21.8
2019-04-07T06:59:30.065Z,21.8
2019-04-07T07:00:28.006Z,21.8
2019-04-07T07:01:12.183Z,21.8
2019-04-07T07:02:04.235Z,21.8
2019-04-07T07:02:51.955Z,21.8
2019-04-07T07:05:33.375Z,21.8
2019-04-07T07:06:11.301Z,21.8
2019-04-07T07:07:20.078Z,21.8
2019-04-07T07:07:59.569Z,21.8
2019-04-07T07:09:04.468Z,21.8
2019-04-07T07:09:42.659Z,21.8
2019-04-07T07:10:51.127Z,21.8
2019-04-07T07:11:46.648Z,21.8
2019-04-07T07:12:06.146Z,21.8
2019-04-07T07:13:03.166Z,21.8
2019-04-07T07:14:00.044Z,21.8
2019-04-07T07:15:03.107Z,21.8
2019-04-07T07:15:46.001Z,21.8
2019-04-07T07:16:30.449Z,21.8
2019-04-07T07:17:25.657Z,21.8
2019-04-07T07:18:14.190Z,21.8
2019-04-07T07:19:08.352Z,21.8
2019-04-07T07:20:08.956Z,21.8
2019-04-07T07:20:42.636Z,21.8
2019-04-07T07:21:40.150Z,21.8
2019-04-07T07:22:25.707Z,21.8
2019-04-07T07:23:22.019Z,21.8
2019-04-07T07:24:01.206Z,21.8
2019-04-07T07:25:12.335Z,21.8
2019-04-07T07:25:43.627Z,21.8
2019-04-07T07:26:39.548Z,21.8
2019-04-07T07:27:20.588Z,21.8
2019-04-07T07:28:14.387Z,21.8
2019-04-07T07:29:19.593Z,21.8
2019-04-07T07:30:00.125Z,21.8
2019-04-07T07:30:38.706Z,21.8
2019-04-07T07:31:53.989Z,21.8
2019-04-07T07:32:21.562Z,21.8
2019-04-07T07:33:16.833Z,21.8
2019-04-07T07:33:59.480Z,21.8
2019-04-07T07:34:51.970Z,21.8
2019-04-07T07:35:38.843Z,21.8
2019-04-07T07:36:33.821Z,21.8
2019-04-07T07:37:26.182Z,21.8
2019-04-07T10:06:20.700Z,20.9
2019-04-07T10:07:02.619Z,21
2019-04-07T10:07:59.496Z,21
2019-04-07T10:08:47.752Z,20.9
2019-04-07T10:09:34.251Z,20.9
2019-04-07T10:10:31.461Z,20.9
2019-04-07T10:11:17.603Z,20.9
2019-04-07T10:12:05.640Z,20.9
2019-04-07T10:12:56.508Z,20.9
2019-04-07T10:13:46.333Z,20.9
2019-04-07T10:14:36.247Z,20.9
2019-04-07T10:15:26.327Z,20.9
2019-04-07T10:16:22.225Z,20.9
2019-04-07T10:17:05.272Z,20.9
2019-04-07T10:17:55.401Z,20.9
2019-04-07T10:18:44.988Z,20.9
2019-04-07T10:19:38.457Z,20.9
2019-04-07T10:20:33.636Z,20.9
2019-04-07T10:21:15.888Z,20.9
2019-04-07T10:22:10.681Z,20.9
2019-04-07T10:22:57.781Z,21
2019-04-07T10:23:50.866Z,21
2019-04-07T10:24:38.281Z,21
2019-04-07T10:25:32.083Z,21
2019-04-07T10:26:18.846Z,21.1
2019-04-07T10:27:06.969Z,21.1
2019-04-07T10:27:58.113Z,21.1
2019-04-07T10:28:57.010Z,21.1
2019-04-07T10:33:00.060Z,21.2
2019-04-07T10:33:48.194Z,21.2
2019-04-07T10:34:37.461Z,21.2
2019-04-07T10:35:27.044Z,21.2
2019-04-07T10:36:18.057Z,21.2
2019-04-07T10:37:14.477Z,21.2
2019-04-07T10:38:04.397Z,21.3
2019-04-07T10:38:51.353Z,21.3
2019-04-07T10:39:39.145Z,21.3
2019-04-07T10:40:33.355Z,21.3
2019-04-07T10:41:21.735Z,21.3
2019-04-07T10:42:12.448Z,21.3
2019-04-07T10:43:05.241Z,21.3
2019-04-07T10:43:51.374Z,21.3
2019-04-07T10:44:40.675Z,21.3
2019-04-07T10:45:27.478Z,21.3
2019-04-07T10:46:21.541Z,21.3
2019-04-07T10:47:10.675Z,21.4
2019-04-07T10:48:02.430Z,21.4
2019-04-07T10:48:51.552Z,21.4
2019-04-07T10:49:41.144Z,21.4
2019-04-07T10:50:31.379Z,21.4
2019-04-07T10:51:20.058Z,21.4
2019-04-07T10:52:10.217Z,21.4
2019-04-07T10:53:01.386Z,21.4
2019-04-07T10:53:51.649Z,21.4
2019-04-07T10:54:39.227Z,21.4
2019-04-07T10:55:30.881Z,21.4
2019-04-07T10:56:19.831Z,21.4
2019-04-07T10:57:12.192Z,21.5
2019-04-07T10:58:01.726Z,21.5
2019-04-07T10:58:51.652Z,21.5
2019-04-07T10:59:39.038Z,21.5
2019-04-07T11:00:31.280Z,21.5
2019-04-07T11:01:22.691Z,21.5
2019-04-07T11:02:12.363Z,21.5
2019-04-07T11:03:08.873Z,21.6
2019-04-07T11:03:47.736Z,21.6
2019-04-07T11:04:41.578Z,21.6
2019-04-07T11:05:32.659Z,21.6
2019-04-07T11:06:24.868Z,21.6
2019-04-07T11:07:12.014Z,21.5
2019-04-07T11:08:01.627Z,21.6
2019-04-07T11:08:52.345Z,21.6
2019-04-07T11:09:39.466Z,21.5
2019-04-07T11:10:49.470Z,21.5
2019-04-07T11:11:23.547Z,21.5
2019-04-07T11:12:11.984Z,21.5
2019-04-07T11:13:04.394Z,21.5
2019-04-07T11:13:53.336Z,21.5
2019-04-07T11:14:42.932Z,21.5
2019-04-07T11:15:31.187Z,21.5
2019-04-07T11:16:20.797Z,21.5
2019-04-07T11:17:14.535Z,21.5
2019-04-07T11:18:03.023Z,21.5
2019-04-07T11:18:53.012Z,21.5
2019-04-07T11:19:45.053Z,21.5
2019-04-07T11:20:31.676Z,21.5
2019-04-07T11:21:21.447Z,21.5
2019-04-07T11:22:12.843Z,21.5
2019-04-07T11:23:02.985Z,21.5
2019-04-07T11:23:52.167Z,21.5
2019-04-07T11:24:43.937Z,21.5
2019-04-07T11:25:33.434Z,21.5
2019-04-07T11:26:23.524Z,21.5
2019-04-07T11:27:14.758Z,21.5
2019-04-07T11:28:04.620Z,21.5
2019-04-07T11:28:52.460Z,21.4
2019-04-07T11:29:47.217Z,21.5
2019-04-07T11:30:33.225Z,21.4
2019-04-07T11:31:24.195Z,21.5
2019-04-07T11:32:13.030Z,21.5
2019-04-07T11:33:05.129Z,21.5
2019-04-07T11:33:51.274Z,21.4
2019-04-07T11:34:41.942Z,21.5
2019-04-07T11:35:38.888Z,21.4
2019-04-07T11:36:31.544Z,21.4
2019-04-07T11:37:19.963Z,21.4
2019-04-07T11:38:04.615Z,21.5
2019-04-07T11:38:54.838Z,21.4
2019-04-07T11:39:42.458Z,21.5
2019-04-07T11:40:54.999Z,21.5
2019-04-07T11:41:33.771Z,21.5
2019-04-07T11:42:16.248Z,21.5
2019-04-07T11:43:03.331Z,21.5
2019-04-07T11:43:52.208Z,21.5
2019-04-07T11:44:43.243Z,21.5
2019-04-07T11:45:33.364Z,21.5
2019-04-07T11:46:25.051Z,21.5
2019-04-07T11:47:12.957Z,21.5
2019-04-07T11:48:04.385Z,21.5
2019-04-07T11:48:54.707Z,21.5
2019-04-07T11:49:51.618Z,21.5
2019-04-07T11:50:36.056Z,21.4
2019-04-07T11:51:26.010Z,21.4
2019-04-07T11:52:14.773Z,21.4
2019-04-07T11:53:05.534Z,21.4
2019-04-07T11:53:53.935Z,21.4
2019-04-07T11:54:46.038Z,21.4
2019-04-07T11:55:38.831Z,21.4
2019-04-07T11:56:26.105Z,21.4
2019-04-07T11:57:15.878Z,21.4
2019-04-07T11:58:44.060Z,21.4
2019-04-07T11:59:02.836Z,21.4
2019-04-07T11:59:53.961Z,21.4
2019-04-07T12:00:49.380Z,21.4
2019-04-07T12:01:34.929Z,21.4
2019-04-07T12:02:30.796Z,21.4
2019-04-07T12:03:13.888Z,21.4
2019-04-07T12:04:08.395Z,21.4
2019-04-07T12:06:30.422Z,21.3
2019-04-07T12:07:06.122Z,21.4
2019-04-07T12:08:07.228Z,21.3
2019-04-07T12:08:48.907Z,21.4
2019-04-07T12:09:37.565Z,21.3
2019-04-07T12:10:26.968Z,21.4
2019-04-07T12:11:20.901Z,21.4
2019-04-07T12:12:09.076Z,21.4
2019-04-07T12:12:58.064Z,21.4
2019-04-07T12:13:54.241Z,21.3
2019-04-07T12:14:38.479Z,21.3
2019-04-07T12:15:37.412Z,21.4
2019-04-07T12:16:17.648Z,21.3
2019-04-07T12:17:20.994Z,21.3
2019-04-07T12:17:59.106Z,21.3
2019-04-07T12:18:55.537Z,21.3
2019-04-07T12:19:39.796Z,21.3
2019-04-07T12:20:38.945Z,21.3
2019-04-07T12:21:41.082Z,21.3
2019-04-07T12:22:18.292Z,21.3
2019-04-07T12:23:00.377Z,21.3
2019-04-07T12:23:55.924Z,21.3
2019-04-07T12:24:52.207Z,21.3
2019-04-07T12:25:33.808Z,21.3
2019-04-07T12:26:19.051Z,21.3
2019-04-07T12:27:20.234Z,21.3
2019-04-07T12:28:00.013Z,21.3
2019-04-07T12:28:56.547Z,21.3
2019-04-07T12:29:36.886Z,21.3
2019-04-07T12:30:32.640Z,21.3
2019-04-07T12:31:20.046Z,21.3
2019-04-07T12:32:09.624Z,21.3
2019-04-07T12:32:59.688Z,21.3
2019-04-07T12:33:50.530Z,21.3
2019-04-07T12:34:38.619Z,21.3
2019-04-07T12:35:36.527Z,21.3
2019-04-07T12:36:32.104Z,21.3
2019-04-07T12:37:18.745Z,21.3
2019-04-07T12:38:05.217Z,21.3
2019-04-07T12:38:55.278Z,21.3
2019-04-07T12:39:47.171Z,21.3
2019-04-07T12:40:35.233Z,21.3
2019-04-07T12:41:40.111Z,21.3
2019-04-07T12:42:18.793Z,21.3
2019-04-07T12:43:00.720Z,21.3
2019-04-07T12:43:58.204Z,21.3
2019-04-07T12:44:40.091Z,21.3
2019-04-07T12:45:30.446Z,21.3
2019-04-07T12:46:21.633Z,21.3
2019-04-07T12:47:10.211Z,21.3
2019-04-07T12:47:59.988Z,21.3
2019-04-07T12:48:50.598Z,21.3
2019-04-07T12:49:51.936Z,21.3
2019-04-07T12:50:28.817Z,21.3
2019-04-07T12:51:25.708Z,21.3
2019-04-07T12:52:09.726Z,21.3
2019-04-07T12:53:53.304Z,21.3
2019-04-07T12:54:48.610Z,21.3
2019-04-07T12:55:32.617Z,21.3
2019-04-07T12:56:20.777Z,21.2
2019-04-07T12:57:17.384Z,21.2
2019-04-07T12:58:02.037Z,21.2
2019-04-07T12:58:58.125Z,21.2
2019-04-07T12:59:41.897Z,21.2
2019-04-07T13:01:21.423Z,21.2
2019-04-07T13:01:50.943Z,21.2
2019-04-07T13:04:26.599Z,21.2
2019-04-07T13:35:14.588Z,21.1
2019-04-07T14:07:23.390Z,21.1
2019-04-07T14:08:59.068Z,21.1
2019-04-07T14:11:28.459Z,21.1
2019-04-07T14:13:13.599Z,21.1
2019-04-07T14:13:57.686Z,21.1
2019-04-07T14:14:48.349Z,21.1
2019-04-07T16:07:24.075Z,20.9
2019-04-07T16:08:06.856Z,20.9
2019-04-07T16:09:38.538Z,20.9
2019-04-07T16:10:14.568Z,20.9
2019-04-07T16:11:08.024Z,20.9
2019-04-07T16:12:06.350Z,20.9
2019-04-07T16:13:07.393Z,20.9
2019-04-07T16:13:37.349Z,20.9
2019-04-07T16:14:27.672Z,20.9
2019-04-07T16:15:22.074Z,20.9
2019-04-07T16:16:06.804Z,20.9
2019-04-07T16:17:13.080Z,20.9
2019-04-07T16:17:53.264Z,20.9
2019-04-07T16:18:45.161Z,20.9
2019-04-07T16:20:02.230Z,20.9
2019-04-07T16:20:52.926Z,20.9
2019-04-07T16:21:48.208Z,20.9
2019-04-07T16:22:32.435Z,20.9
2019-04-07T16:23:29.439Z,20.9
2019-04-07T16:24:12.454Z,20.9
2019-04-07T16:25:05.233Z,20.9
2019-04-07T16:25:52.294Z,20.9
2019-04-07T16:26:48.455Z,20.9
2019-04-07T16:27:40.599Z,20.9
2019-04-07T16:28:24.833Z,20.9
2019-04-07T16:29:22.008Z,20.9
2019-04-07T16:30:03.538Z,20.9
2019-04-07T16:30:58.576Z,20.9
2019-04-07T16:31:42.875Z,20.9
2019-04-07T16:32:37.551Z,20.9
2019-04-07T16:33:23.232Z,20.9
2019-04-07T16:34:20.670Z,20.9
2019-04-07T16:35:03.697Z,20.9
2019-04-07T16:36:04.957Z,20.9
2019-04-07T16:36:44.327Z,20.9
2019-04-07T16:37:40.788Z,20.9
2019-04-07T16:38:25.404Z,20.9
2019-04-07T16:39:17.753Z,20.9
2019-04-07T16:40:13.051Z,20.9
2019-04-07T16:40:54.880Z,20.9
2019-04-07T16:41:49.290Z,20.9
2019-04-07T16:42:33.832Z,20.9
2019-04-07T16:43:37.948Z,20.9
2019-04-07T16:44:19.562Z,20.9
2019-04-07T16:45:03.382Z,20.9
2019-04-07T16:45:59.590Z,20.9
2019-04-07T16:46:44.242Z,20.9
2019-04-07T16:47:44.357Z,20.8
2019-04-07T16:48:23.351Z,20.9
2019-04-07T16:49:28.537Z,20.9
2019-04-07T16:50:03.672Z,20.8
2019-04-07T16:51:07.170Z,20.9
2019-04-07T16:51:45.364Z,20.9
2019-04-07T16:52:40.827Z,20.9
2019-04-07T16:53:22.550Z,20.9
2019-04-07T16:54:21.104Z,20.8
2019-04-07T16:55:05.243Z,20.9
2019-04-07T16:56:05.821Z,20.8
2019-04-07T16:56:45.533Z,20.8
2019-04-07T16:57:41.493Z,20.8
2019-04-07T16:58:25.821Z,20.8
2019-04-07T16:59:20.751Z,20.9
2019-04-07T17:00:05.028Z,20.8
2019-04-07T17:00:56.496Z,20.8
2019-04-07T17:01:46.048Z,20.8
2019-04-07T17:02:35.862Z,20.8
2019-04-07T17:03:23.511Z,20.8
2019-04-07T17:04:14.726Z,20.8
2019-04-07T17:05:06.738Z,20.8
2019-04-07T17:06:05.284Z,20.8
2019-04-07T17:07:08.706Z,20.8
2019-04-07T17:07:38.735Z,20.8
2019-04-07T17:08:36.798Z,20.8
2019-04-07T17:09:17.740Z,20.8
2019-04-07T17:10:14.778Z,20.8
2019-04-07T17:10:57.809Z,20.8
2019-04-07T17:11:51.551Z,20.8
2019-04-07T17:12:43.985Z,20.8
2019-04-07T17:13:54.257Z,20.8
2019-04-07T17:14:20.125Z,20.8
2019-04-07T17:15:16.198Z,20.8
2019-04-07T17:16:04.686Z,20.8
2019-04-07T17:16:56.717Z,20.8
2019-04-07T17:17:40.550Z,20.8
2019-04-07T17:18:36.725Z,20.8
2019-04-07T17:19:25.609Z,20.8
2019-04-07T17:20:10.747Z,20.8
2019-04-07T17:21:00.810Z,20.8
2019-04-07T17:21:56.000Z,20.8
2019-04-07T17:22:40.354Z,20.8
2019-04-07T17:23:35.310Z,20.8
2019-04-07T17:24:19.626Z,20.8
2019-04-07T17:25:20.575Z,20.8
2019-04-07T17:26:09.414Z,20.8
2019-04-07T17:26:50.272Z,20.8
2019-04-07T17:27:47.064Z,20.8
2019-04-07T17:28:30.135Z,20.8
2019-04-07T17:29:31.075Z,20.8
2019-04-07T17:30:09.024Z,20.8
2019-04-07T17:31:08.967Z,20.8
2019-04-07T17:31:50.830Z,20.8
2019-04-07T17:32:49.737Z,20.8
2019-04-07T17:33:39.856Z,20.8
2019-04-07T17:34:26.162Z,20.8
2019-04-07T17:35:18.911Z,20.8
2019-04-07T17:36:04.385Z,20.8
2019-04-07T17:37:00.886Z,20.8
2019-04-07T17:37:41.575Z,20.8
2019-04-07T17:38:36.239Z,20.8
2019-04-07T17:39:21.659Z,20.8
2019-04-07T17:40:18.950Z,20.8
2019-04-07T17:41:02.022Z,20.8
2019-04-07T17:41:55.764Z,20.8
2019-04-07T17:42:40.375Z,20.8
2019-04-07T17:44:07.866Z,20.8
2019-04-07T17:44:39.142Z,20.8
2019-04-07T17:45:33.876Z,20.7
2019-04-07T17:46:19.077Z,20.8
2019-04-07T17:47:09.637Z,20.8
2019-04-07T17:48:04.862Z,20.8
2019-04-07T17:49:08.830Z,20.8
2019-04-07T17:49:43.753Z,20.8
2019-04-07T17:50:35.700Z,20.8
2019-04-07T17:51:20.820Z,20.7
2019-04-07T17:52:16.343Z,20.7
2019-04-07T17:53:00.522Z,20.7
2019-04-07T17:53:55.867Z,20.7
2019-04-07T17:54:39.661Z,20.7
2019-04-07T17:55:36.795Z,20.7
2019-04-07T17:56:34.123Z,20.7
2019-04-07T17:57:16.915Z,20.7
2019-04-07T17:58:01.485Z,20.7
2019-04-07T17:58:53.416Z,20.7
2019-04-07T17:59:52.072Z,20.7